sensor_id;sensor_type;location;lat;lon;timestamp;temperature;humidity
21849;DHT22;11089;49.852;19.700;2023-07-29T00:00:31;17.70;99.90
21849;DHT22;11089;49.852;19.700;2023-07-29T00:03:32;18.70;7.00
21849;DHT22;11089;49.852;19.700;2023-07-29T00:06:33;18.80;1.00
21849;DHT22;11089;49.852;19.700;2023-07-29T00:09:34;18.70;62.70
21849;DHT22;11089;49.852;19.700;2023-07-29T00:12:35;18.20;21.40
21849;DHT22;11089;49.852;19.700;2023-07-29T00:15:36;18.40;1.00
21849;DHT22;11089;49.852;19.700;2023-07-29T00:18:36;18.40;1.00
21849;DHT22;11089;49.852;19.700;2023-07-29T00:21:37;18.40;99.90
21849;DHT22;11089;49.852;19.700;2023-07-29T00:24:39;18.40;1.00
21849;DHT22;11089;49.852;19.700;2023-07-29T00:27:41;19.40;99.90
21849;DHT22;11089;49.852;19.700;2023-07-29T00:30:42;18.90;99.90
21849;DHT22;11089;49.852;19.700;2023-07-29T00:33:46;18.10;1.00
21849;DHT22;11089;49.852;19.700;2023-07-29T00:36:47;17.70;99.90
21849;DHT22;11089;49.852;19.700;2023-07-29T00:39:47;18.10;99.90
21849;DHT22;11089;49.852;19.700;2023-07-29T00:42:49;18.30;99.90
21849;DHT22;11089;49.852;19.700;2023-07-29T00:45:50;18.30;99.90
21849;DHT22;11089;49.852;19.700;2023-07-29T00:48:52;18.20;1.00
21849;DHT22;11089;49.852;19.700;2023-07-29T00:51:52;18.20;99.90
21849;DHT22;11089;49.852;19.700;2023-07-29T00:54:53;18.20;99.90
21849;DHT22;11089;49.852;19.700;2023-07-29T00:57:54;18.20;1.00
21849;DHT22;11089;49.852;19.700;2023-07-29T01:00:56;18.60;99.90
21849;DHT22;11089;49.852;19.700;2023-07-29T01:03:57;18.30;1.00
21849;DHT22;11089;49.852;19.700;2023-07-29T01:13:50;19.20;1.00
21849;DHT22;11089;49.852;19.700;2023-07-29T01:16:57;18.00;1.00
21849;DHT22;11089;49.852;19.700;2023-07-29T01:20:07;18.70;1.00
21849;DHT22;11089;49.852;19.700;2023-07-29T01:23:09;17.90;99.90
21849;DHT22;11089;49.852;19.700;2023-07-29T01:26:10;17.80;99.90
21849;DHT22;11089;49.852;19.700;2023-07-29T01:29:11;18.10;1.00
21849;DHT22;11089;49.852;19.700;2023-07-29T01:32:25;18.70;1.00
21849;DHT22;11089;49.852;19.700;2023-07-29T01:35:39;17.60;99.90
21849;DHT22;11089;49.852;19.700;2023-07-29T01:38:41;18.30;99.90
21849;DHT22;11089;49.852;19.700;2023-07-29T01:41:44;18.10;1.00
21849;DHT22;11089;49.852;19.700;2023-07-29T01:47:46;17.30;1.00
21849;DHT22;11089;49.852;19.700;2023-07-29T01:50:47;18.20;1.00
21849;DHT22;11089;49.852;19.700;2023-07-29T01:53:48;18.40;1.00
21849;DHT22;11089;49.852;19.700;2023-07-29T01:56:49;18.10;99.90
21849;DHT22;11089;49.852;19.700;2023-07-29T01:59:51;18.20;99.90
21849;DHT22;11089;49.852;19.700;2023-07-29T02:02:52;18.10;1.00
21849;DHT22;11089;49.852;19.700;2023-07-29T02:05:53;18.30;99.90
21849;DHT22;11089;49.852;19.700;2023-07-29T02:08:55;18.10;1.00
21849;DHT22;11089;49.852;19.700;2023-07-29T02:11:55;18.60;1.00
21849;DHT22;11089;49.852;19.700;2023-07-29T02:14:56;18.20;99.90
21849;DHT22;11089;49.852;19.700;2023-07-29T02:17:57;18.20;99.90
21849;DHT22;11089;49.852;19.700;2023-07-29T02:20:59;18.50;99.90
21849;DHT22;11089;49.852;19.700;2023-07-29T02:24:00;17.90;1.00
21849;DHT22;11089;49.852;19.700;2023-07-29T02:27:01;17.90;1.00
21849;DHT22;11089;49.852;19.700;2023-07-29T02:30:02;18.00;1.00
21849;DHT22;11089;49.852;19.700;2023-07-29T02:33:03;18.20;99.90
21849;DHT22;11089;49.852;19.700;2023-07-29T02:36:04;19.00;1.00
21849;DHT22;11089;49.852;19.700;2023-07-29T02:39:05;18.90;99.90
21849;DHT22;11089;49.852;19.700;2023-07-29T02:42:06;17.80;99.90
21849;DHT22;11089;49.852;19.700;2023-07-29T02:45:07;18.70;1.00
21849;DHT22;11089;49.852;19.700;2023-07-29T02:48:10;18.20;1.00
21849;DHT22;11089;49.852;19.700;2023-07-29T02:51:11;18.30;1.00
21849;DHT22;11089;49.852;19.700;2023-07-29T02:54:12;18.80;42.40
21849;DHT22;11089;49.852;19.700;2023-07-29T02:57:13;18.40;1.00
21849;DHT22;11089;49.852;19.700;2023-07-29T03:03:15;18.00;1.00
21849;DHT22;11089;49.852;19.700;2023-07-29T03:06:16;18.90;99.90
21849;DHT22;11089;49.852;19.700;2023-07-29T03:09:17;18.40;13.70
21849;DHT22;11089;49.852;19.700;2023-07-29T03:12:18;18.20;99.90
21849;DHT22;11089;49.852;19.700;2023-07-29T03:15:19;18.20;1.00
21849;DHT22;11089;49.852;19.700;2023-07-29T03:18:21;18.40;99.90
21849;DHT22;11089;49.852;19.700;2023-07-29T03:21:22;17.70;1.00
21849;DHT22;11089;49.852;19.700;2023-07-29T03:24:23;20.00;1.00
21849;DHT22;11089;49.852;19.700;2023-07-29T03:27:23;18.10;99.90
21849;DHT22;11089;49.852;19.700;2023-07-29T03:30:24;18.20;1.00
21849;DHT22;11089;49.852;19.700;2023-07-29T03:33:26;18.40;1.00
21849;DHT22;11089;49.852;19.700;2023-07-29T03:36:27;18.10;1.00
21849;DHT22;11089;49.852;19.700;2023-07-29T03:39:27;18.20;99.90
21849;DHT22;11089;49.852;19.700;2023-07-29T03:42:28;20.00;99.90
21849;DHT22;11089;49.852;19.700;2023-07-29T03:45:29;18.60;99.90
21849;DHT22;11089;49.852;19.700;2023-07-29T03:48:30;19.00;99.90
21849;DHT22;11089;49.852;19.700;2023-07-29T03:51:31;18.60;1.00
21849;DHT22;11089;49.852;19.700;2023-07-29T03:54:32;19.10;99.90
21849;DHT22;11089;49.852;19.700;2023-07-29T03:57:33;19.60;1.00
21849;DHT22;11089;49.852;19.700;2023-07-29T04:00:34;17.90;99.90
21849;DHT22;11089;49.852;19.700;2023-07-29T04:03:35;18.00;99.90
21849;DHT22;11089;49.852;19.700;2023-07-29T04:06:35;18.70;1.00
21849;DHT22;11089;49.852;19.700;2023-07-29T04:09:36;19.50;1.00
21849;DHT22;11089;49.852;19.700;2023-07-29T04:12:37;18.70;99.90
21849;DHT22;11089;49.852;19.700;2023-07-29T04:15:38;20.20;1.00
21849;DHT22;11089;49.852;19.700;2023-07-29T04:18:39;18.90;99.90
21849;DHT22;11089;49.852;19.700;2023-07-29T04:21:40;19.70;1.00
21849;DHT22;11089;49.852;19.700;2023-07-29T04:24:40;19.60;99.90
21849;DHT22;11089;49.852;19.700;2023-07-29T04:27:41;18.90;1.00
21849;DHT22;11089;49.852;19.700;2023-07-29T04:30:42;19.00;99.90
21849;DHT22;11089;49.852;19.700;2023-07-29T04:33:43;19.90;99.90
21849;DHT22;11089;49.852;19.700;2023-07-29T04:36:44;18.20;99.90
21849;DHT22;11089;49.852;19.700;2023-07-29T04:39:45;19.50;99.90
21849;DHT22;11089;49.852;19.700;2023-07-29T04:42:47;18.30;1.00
21849;DHT22;11089;49.852;19.700;2023-07-29T04:45:47;19.80;1.00
21849;DHT22;11089;49.852;19.700;2023-07-29T04:48:48;18.80;99.90
21849;DHT22;11089;49.852;19.700;2023-07-29T04:51:49;19.10;99.90
21849;DHT22;11089;49.852;19.700;2023-07-29T04:54:51;18.90;99.90
21849;DHT22;11089;49.852;19.700;2023-07-29T04:57:51;18.20;99.90
21849;DHT22;11089;49.852;19.700;2023-07-29T05:00:52;19.30;1.00
21849;DHT22;11089;49.852;19.700;2023-07-29T05:03:53;18.70;99.90
21849;DHT22;11089;49.852;19.700;2023-07-29T05:06:54;18.90;1.00
21849;DHT22;11089;49.852;19.700;2023-07-29T05:12:56;19.30;1.00
21849;DHT22;11089;49.852;19.700;2023-07-29T05:15:57;19.10;99.90
21849;DHT22;11089;49.852;19.700;2023-07-29T05:18:58;19.10;99.90
21849;DHT22;11089;49.852;19.700;2023-07-29T05:21:58;19.30;1.00
21849;DHT22;11089;49.852;19.700;2023-07-29T05:24:59;19.40;99.90
21849;DHT22;11089;49.852;19.700;2023-07-29T05:28:01;19.40;1.00
21849;DHT22;11089;49.852;19.700;2023-07-29T05:31:02;19.30;1.00
21849;DHT22;11089;49.852;19.700;2023-07-29T05:37:05;19.60;1.00
21849;DHT22;11089;49.852;19.700;2023-07-29T05:40:07;20.00;99.90
21849;DHT22;11089;49.852;19.700;2023-07-29T05:43:09;19.30;1.00
21849;DHT22;11089;49.852;19.700;2023-07-29T05:46:10;20.00;1.00
21849;DHT22;11089;49.852;19.700;2023-07-29T05:49:11;19.80;99.90
21849;DHT22;11089;49.852;19.700;2023-07-29T05:52:12;19.50;99.90
21849;DHT22;11089;49.852;19.700;2023-07-29T05:55:13;19.70;99.90
21849;DHT22;11089;49.852;19.700;2023-07-29T05:58:14;19.60;1.00
21849;DHT22;11089;49.852;19.700;2023-07-29T06:01:15;19.60;11.00
21849;DHT22;11089;49.852;19.700;2023-07-29T06:04:15;19.50;99.90
21849;DHT22;11089;49.852;19.700;2023-07-29T06:07:16;18.80;56.50
21849;DHT22;11089;49.852;19.700;2023-07-29T06:10:17;20.70;1.00
21849;DHT22;11089;49.852;19.700;2023-07-29T06:13:19;19.90;22.00
21849;DHT22;11089;49.852;19.700;2023-07-29T06:16:19;20.20;1.00
21849;DHT22;11089;49.852;19.700;2023-07-29T06:19:20;20.10;1.00
21849;DHT22;11089;49.852;19.700;2023-07-29T06:22:21;20.50;1.00
21849;DHT22;11089;49.852;19.700;2023-07-29T06:28:23;20.60;1.00
21849;DHT22;11089;49.852;19.700;2023-07-29T06:31:24;20.70;1.00
21849;DHT22;11089;49.852;19.700;2023-07-29T06:34:25;19.90;1.00
21849;DHT22;11089;49.852;19.700;2023-07-29T06:37:26;20.60;1.00
21849;DHT22;11089;49.852;19.700;2023-07-29T06:40:27;20.60;1.00
21849;DHT22;11089;49.852;19.700;2023-07-29T06:43:28;20.90;99.90
21849;DHT22;11089;49.852;19.700;2023-07-29T06:46:28;20.40;1.00
21849;DHT22;11089;49.852;19.700;2023-07-29T06:49:29;20.30;1.00
21849;DHT22;11089;49.852;19.700;2023-07-29T06:52:30;21.50;99.90
21849;DHT22;11089;49.852;19.700;2023-07-29T06:55:31;21.40;99.90
21849;DHT22;11089;49.852;19.700;2023-07-29T06:58:32;21.80;60.10
21849;DHT22;11089;49.852;19.700;2023-07-29T07:01:34;21.30;99.90
21849;DHT22;11089;49.852;19.700;2023-07-29T07:04:34;21.10;99.90
21849;DHT22;11089;49.852;19.700;2023-07-29T07:07:35;21.80;1.00
21849;DHT22;11089;49.852;19.700;2023-07-29T07:10:36;21.50;1.00
21849;DHT22;11089;49.852;19.700;2023-07-29T07:13:37;22.30;99.90
21849;DHT22;11089;49.852;19.700;2023-07-29T07:16:38;22.40;1.00
21849;DHT22;11089;49.852;19.700;2023-07-29T07:19:40;22.10;1.00
21849;DHT22;11089;49.852;19.700;2023-07-29T07:22:41;22.40;99.90
21849;DHT22;11089;49.852;19.700;2023-07-29T07:25:41;22.10;25.70
21849;DHT22;11089;49.852;19.700;2023-07-29T07:28:45;22.60;1.00
21849;DHT22;11089;49.852;19.700;2023-07-29T07:31:53;23.00;1.00
21849;DHT22;11089;49.852;19.700;2023-07-29T07:34:54;22.50;1.00
21849;DHT22;11089;49.852;19.700;2023-07-29T07:37:55;24.00;1.00
21849;DHT22;11089;49.852;19.700;2023-07-29T07:40:56;23.30;1.00
21849;DHT22;11089;49.852;19.700;2023-07-29T07:43:57;22.50;1.00
21849;DHT22;11089;49.852;19.700;2023-07-29T07:46:58;23.00;1.00
21849;DHT22;11089;49.852;19.700;2023-07-29T07:49:59;23.70;1.00
21849;DHT22;11089;49.852;19.700;2023-07-29T07:53:00;23.90;1.00
21849;DHT22;11089;49.852;19.700;2023-07-29T07:56:00;24.40;1.00
21849;DHT22;11089;49.852;19.700;2023-07-29T07:59:01;23.70;42.20
21849;DHT22;11089;49.852;19.700;2023-07-29T08:02:02;23.70;99.90
21849;DHT22;11089;49.852;19.700;2023-07-29T08:05:03;23.70;12.90
21849;DHT22;11089;49.852;19.700;2023-07-29T08:08:04;24.00;1.00
21849;DHT22;11089;49.852;19.700;2023-07-29T08:11:05;23.30;99.90
21849;DHT22;11089;49.852;19.700;2023-07-29T08:14:06;23.40;99.90
21849;DHT22;11089;49.852;19.700;2023-07-29T08:17:07;23.50;99.90
21849;DHT22;11089;49.852;19.700;2023-07-29T08:20:08;23.90;1.00
21849;DHT22;11089;49.852;19.700;2023-07-29T08:23:09;23.80;1.00
21849;DHT22;11089;49.852;19.700;2023-07-29T08:26:10;23.50;99.90
21849;DHT22;11089;49.852;19.700;2023-07-29T08:29:11;22.80;11.40
21849;DHT22;11089;49.852;19.700;2023-07-29T08:32:12;24.00;1.00
21849;DHT22;11089;49.852;19.700;2023-07-29T08:35:13;24.00;61.30
21849;DHT22;11089;49.852;19.700;2023-07-29T08:38:14;24.10;99.90
21849;DHT22;11089;49.852;19.700;2023-07-29T08:41:31;24.10;1.00
21849;DHT22;11089;49.852;19.700;2023-07-29T08:44:41;24.30;99.90
21849;DHT22;11089;49.852;19.700;2023-07-29T08:47:42;24.30;99.90
21849;DHT22;11089;49.852;19.700;2023-07-29T08:50:44;24.80;99.90
21849;DHT22;11089;49.852;19.700;2023-07-29T08:53:46;24.70;1.00
21849;DHT22;11089;49.852;19.700;2023-07-29T08:56:47;24.30;99.90
21849;DHT22;11089;49.852;19.700;2023-07-29T08:59:48;24.70;1.00
21849;DHT22;11089;49.852;19.700;2023-07-29T09:02:49;24.60;1.00
21849;DHT22;11089;49.852;19.700;2023-07-29T09:05:51;25.10;1.00
21849;DHT22;11089;49.852;19.700;2023-07-29T09:08:53;24.80;99.90
21849;DHT22;11089;49.852;19.700;2023-07-29T09:11:54;24.50;1.00
21849;DHT22;11089;49.852;19.700;2023-07-29T09:14:55;24.00;1.00
21849;DHT22;11089;49.852;19.700;2023-07-29T09:17:57;23.80;1.00
21849;DHT22;11089;49.852;19.700;2023-07-29T09:20:59;22.80;99.90
21849;DHT22;11089;49.852;19.700;2023-07-29T09:24:04;22.60;1.00
21849;DHT22;11089;49.852;19.700;2023-07-29T09:27:06;22.50;1.00
21849;DHT22;11089;49.852;19.700;2023-07-29T09:30:16;22.40;99.90
21849;DHT22;11089;49.852;19.700;2023-07-29T09:33:18;23.00;1.00
21849;DHT22;11089;49.852;19.700;2023-07-29T09:36:21;22.10;1.00
21849;DHT22;11089;49.852;19.700;2023-07-29T09:39:23;22.60;1.00
21849;DHT22;11089;49.852;19.700;2023-07-29T09:42:24;22.20;1.00
21849;DHT22;11089;49.852;19.700;2023-07-29T09:45:27;22.30;49.50
21849;DHT22;11089;49.852;19.700;2023-07-29T09:48:28;22.80;38.60
21849;DHT22;11089;49.852;19.700;2023-07-29T09:51:32;23.00;1.00
21849;DHT22;11089;49.852;19.700;2023-07-29T09:54:38;23.40;1.00
21849;DHT22;11089;49.852;19.700;2023-07-29T09:57:40;23.50;4.20
21849;DHT22;11089;49.852;19.700;2023-07-29T10:00:41;24.20;99.90
21849;DHT22;11089;49.852;19.700;2023-07-29T10:03:43;23.50;1.00
21849;DHT22;11089;49.852;19.700;2023-07-29T10:06:45;23.90;1.00
21849;DHT22;11089;49.852;19.700;2023-07-29T10:09:48;23.20;99.90
21849;DHT22;11089;49.852;19.700;2023-07-29T10:12:52;24.20;99.90
21849;DHT22;11089;49.852;19.700;2023-07-29T10:15:54;23.60;1.00
21849;DHT22;11089;49.852;19.700;2023-07-29T10:18:57;24.00;99.90
21849;DHT22;11089;49.852;19.700;2023-07-29T10:22:02;23.20;1.00
21849;DHT22;11089;49.852;19.700;2023-07-29T10:25:07;23.60;1.00
21849;DHT22;11089;49.852;19.700;2023-07-29T10:28:11;23.60;99.90
21849;DHT22;11089;49.852;19.700;2023-07-29T10:31:14;23.80;1.00
21849;DHT22;11089;49.852;19.700;2023-07-29T10:37:17;22.80;1.00
21849;DHT22;11089;49.852;19.700;2023-07-29T10:40:18;23.60;1.00
21849;DHT22;11089;49.852;19.700;2023-07-29T10:49:27;24.00;1.00
21849;DHT22;11089;49.852;19.700;2023-07-29T10:52:40;22.70;32.30
21849;DHT22;11089;49.852;19.700;2023-07-29T10:55:44;22.40;99.90
21849;DHT22;11089;49.852;19.700;2023-07-29T10:58:44;21.90;1.00
21849;DHT22;11089;49.852;19.700;2023-07-29T11:01:56;23.00;99.90
21849;DHT22;11089;49.852;19.700;2023-07-29T11:04:58;23.60;1.00
21849;DHT22;11089;49.852;19.700;2023-07-29T11:11:21;22.40;99.90
21849;DHT22;11089;49.852;19.700;2023-07-29T11:14:22;22.40;1.00
21849;DHT22;11089;49.852;19.700;2023-07-29T11:17:25;21.80;1.00
21849;DHT22;11089;49.852;19.700;2023-07-29T11:23:35;23.00;1.00
21849;DHT22;11089;49.852;19.700;2023-07-29T11:26:37;21.80;1.00
21849;DHT22;11089;49.852;19.700;2023-07-29T11:29:38;23.30;1.00
21849;DHT22;11089;49.852;19.700;2023-07-29T11:32:40;22.20;1.00
21849;DHT22;11089;49.852;19.700;2023-07-29T11:35:41;22.90;1.00
21849;DHT22;11089;49.852;19.700;2023-07-29T11:38:42;24.00;99.90
21849;DHT22;11089;49.852;19.700;2023-07-29T11:47:45;24.00;1.00
21849;DHT22;11089;49.852;19.700;2023-07-29T11:50:46;23.80;99.90
21849;DHT22;11089;49.852;19.700;2023-07-29T11:53:47;25.00;1.00
21849;DHT22;11089;49.852;19.700;2023-07-29T11:56:50;24.00;99.90
21849;DHT22;11089;49.852;19.700;2023-07-29T11:59:51;25.50;20.50
21849;DHT22;11089;49.852;19.700;2023-07-29T12:02:53;25.00;1.00
21849;DHT22;11089;49.852;19.700;2023-07-29T12:05:54;25.40;1.00
21849;DHT22;11089;49.852;19.700;2023-07-29T12:08:56;24.70;1.00
21849;DHT22;11089;49.852;19.700;2023-07-29T12:11:56;25.90;99.90
21849;DHT22;11089;49.852;19.700;2023-07-29T12:14:58;25.20;1.00
21849;DHT22;11089;49.852;19.700;2023-07-29T12:17:59;26.10;99.90
21849;DHT22;11089;49.852;19.700;2023-07-29T12:21:00;25.10;99.90
21849;DHT22;11089;49.852;19.700;2023-07-29T12:24:02;27.10;1.00
21849;DHT22;11089;49.852;19.700;2023-07-29T12:27:04;26.60;1.00
21849;DHT22;11089;49.852;19.700;2023-07-29T12:30:06;27.10;1.00
21849;DHT22;11089;49.852;19.700;2023-07-29T12:33:07;27.30;99.90
21849;DHT22;11089;49.852;19.700;2023-07-29T12:36:08;26.70;34.20
21849;DHT22;11089;49.852;19.700;2023-07-29T12:39:28;27.00;1.00
21849;DHT22;11089;49.852;19.700;2023-07-29T12:45:35;26.80;1.00
21849;DHT22;11089;49.852;19.700;2023-07-29T12:51:37;27.40;99.90
21849;DHT22;11089;49.852;19.700;2023-07-29T12:54:38;26.80;99.90
21849;DHT22;11089;49.852;19.700;2023-07-29T12:57:43;27.20;99.90
21849;DHT22;11089;49.852;19.700;2023-07-29T13:00:44;26.10;99.90
21849;DHT22;11089;49.852;19.700;2023-07-29T13:03:45;27.20;1.00
21849;DHT22;11089;49.852;19.700;2023-07-29T13:06:46;27.10;1.00
21849;DHT22;11089;49.852;19.700;2023-07-29T13:09:47;27.40;1.00
21849;DHT22;11089;49.852;19.700;2023-07-29T13:12:48;26.10;1.00
21849;DHT22;11089;49.852;19.700;2023-07-29T13:39:58;26.00;1.00
21849;DHT22;11089;49.852;19.700;2023-07-29T13:42:59;26.70;1.00
21849;DHT22;11089;49.852;19.700;2023-07-29T13:46:00;26.50;1.00
21849;DHT22;11089;49.852;19.700;2023-07-29T13:49:00;26.80;99.90
21849;DHT22;11089;49.852;19.700;2023-07-29T13:52:02;26.00;99.90
21849;DHT22;11089;49.852;19.700;2023-07-29T13:55:04;25.10;99.90
21849;DHT22;11089;49.852;19.700;2023-07-29T14:01:06;23.80;1.00
21849;DHT22;11089;49.852;19.700;2023-07-29T14:04:07;24.60;1.00
21849;DHT22;11089;49.852;19.700;2023-07-29T14:10:09;23.90;60.50
21849;DHT22;11089;49.852;19.700;2023-07-29T14:13:10;24.30;99.90
21849;DHT22;11089;49.852;19.700;2023-07-29T14:16:12;24.50;99.90
21849;DHT22;11089;49.852;19.700;2023-07-29T14:19:13;24.60;99.90
21849;DHT22;11089;49.852;19.700;2023-07-29T14:22:14;24.70;1.00
21849;DHT22;11089;49.852;19.700;2023-07-29T14:25:15;24.50;99.90
21849;DHT22;11089;49.852;19.700;2023-07-29T14:28:16;24.60;30.40
21849;DHT22;11089;49.852;19.700;2023-07-29T14:31:17;24.20;99.90
21849;DHT22;11089;49.852;19.700;2023-07-29T14:37:19;24.40;1.00
21849;DHT22;11089;49.852;19.700;2023-07-29T14:40:20;24.90;5.90
21849;DHT22;11089;49.852;19.700;2023-07-29T14:43:21;24.50;1.00
21849;DHT22;11089;49.852;19.700;2023-07-29T14:46:22;24.30;1.00
21849;DHT22;11089;49.852;19.700;2023-07-29T14:49:23;24.50;1.00
21849;DHT22;11089;49.852;19.700;2023-07-29T14:55:24;24.10;1.00
21849;DHT22;11089;49.852;19.700;2023-07-29T14:58:25;23.50;1.00
21849;DHT22;11089;49.852;19.700;2023-07-29T15:04:27;24.40;97.70
21849;DHT22;11089;49.852;19.700;2023-07-29T15:07:28;23.70;99.90
21849;DHT22;11089;49.852;19.700;2023-07-29T15:10:29;23.70;99.90
21849;DHT22;11089;49.852;19.700;2023-07-29T15:13:29;24.60;99.90
21849;DHT22;11089;49.852;19.700;2023-07-29T15:16:30;24.60;1.00
21849;DHT22;11089;49.852;19.700;2023-07-29T15:22:32;24.40;1.00
21849;DHT22;11089;49.852;19.700;2023-07-29T15:25:33;24.30;99.90
21849;DHT22;11089;49.852;19.700;2023-07-29T15:28:33;24.60;99.90
21849;DHT22;11089;49.852;19.700;2023-07-29T15:31:35;23.70;99.90
21849;DHT22;11089;49.852;19.700;2023-07-29T15:34:36;23.20;1.00
21849;DHT22;11089;49.852;19.700;2023-07-29T15:37:37;24.30;99.90
21849;DHT22;11089;49.852;19.700;2023-07-29T15:40:38;23.40;1.00
21849;DHT22;11089;49.852;19.700;2023-07-29T15:43:39;24.50;30.00
21849;DHT22;11089;49.852;19.700;2023-07-29T15:49:41;23.40;99.90
21849;DHT22;11089;49.852;19.700;2023-07-29T15:52:43;24.50;1.00
21849;DHT22;11089;49.852;19.700;2023-07-29T15:55:43;24.10;99.90
21849;DHT22;11089;49.852;19.700;2023-07-29T15:58:44;24.00;99.90
21849;DHT22;11089;49.852;19.700;2023-07-29T16:01:45;23.40;99.90
21849;DHT22;11089;49.852;19.700;2023-07-29T16:04:46;23.80;92.80
21849;DHT22;11089;49.852;19.700;2023-07-29T16:07:48;23.60;99.90
21849;DHT22;11089;49.852;19.700;2023-07-29T16:10:50;23.70;99.90
21849;DHT22;11089;49.852;19.700;2023-07-29T16:13:51;24.60;99.90
21849;DHT22;11089;49.852;19.700;2023-07-29T16:19:58;23.60;1.00
21849;DHT22;11089;49.852;19.700;2023-07-29T16:22:59;23.70;1.00
21849;DHT22;11089;49.852;19.700;2023-07-29T16:29:01;24.40;1.00
21849;DHT22;11089;49.852;19.700;2023-07-29T16:50:10;22.80;1.00
21849;DHT22;11089;49.852;19.700;2023-07-29T16:53:10;23.20;1.00
21849;DHT22;11089;49.852;19.700;2023-07-29T16:56:11;23.20;1.00
21849;DHT22;11089;49.852;19.700;2023-07-29T16:59:12;23.20;99.90
21849;DHT22;11089;49.852;19.700;2023-07-29T17:02:13;23.00;99.90
21849;DHT22;11089;49.852;19.700;2023-07-29T17:11:17;22.60;1.00
21849;DHT22;11089;49.852;19.700;2023-07-29T17:14:17;22.50;1.00
21849;DHT22;11089;49.852;19.700;2023-07-29T17:17:19;22.60;1.00
21849;DHT22;11089;49.852;19.700;2023-07-29T17:20:20;22.60;1.00
21849;DHT22;11089;49.852;19.700;2023-07-29T17:23:20;22.60;1.00
21849;DHT22;11089;49.852;19.700;2023-07-29T17:26:21;22.60;1.00
21849;DHT22;11089;49.852;19.700;2023-07-29T17:29:22;22.60;1.00
21849;DHT22;11089;49.852;19.700;2023-07-29T17:32:24;22.50;1.00
21849;DHT22;11089;49.852;19.700;2023-07-29T17:35:24;22.50;1.00
21849;DHT22;11089;49.852;19.700;2023-07-29T17:38:25;22.50;1.00
21849;DHT22;11089;49.852;19.700;2023-07-29T17:41:26;22.50;1.00
21849;DHT22;11089;49.852;19.700;2023-07-29T17:44:27;22.50;1.00
21849;DHT22;11089;49.852;19.700;2023-07-29T17:47:28;22.50;1.00
21849;DHT22;11089;49.852;19.700;2023-07-29T17:50:30;22.50;1.00
21849;DHT22;11089;49.852;19.700;2023-07-29T17:53:32;22.50;1.00
21849;DHT22;11089;49.852;19.700;2023-07-29T17:56:33;22.50;1.00
21849;DHT22;11089;49.852;19.700;2023-07-29T17:59:42;22.40;1.00
21849;DHT22;11089;49.852;19.700;2023-07-29T18:02:45;22.50;1.00
21849;DHT22;11089;49.852;19.700;2023-07-29T18:05:46;22.40;23.40
21849;DHT22;11089;49.852;19.700;2023-07-29T18:08:47;22.30;99.90
21849;DHT22;11089;49.852;19.700;2023-07-29T18:11:48;22.30;99.90
21849;DHT22;11089;49.852;19.700;2023-07-29T18:14:48;22.40;1.00
21849;DHT22;11089;49.852;19.700;2023-07-29T18:17:49;22.40;1.00
21849;DHT22;11089;49.852;19.700;2023-07-29T18:20:50;22.30;99.90
21849;DHT22;11089;49.852;19.700;2023-07-29T18:23:51;22.20;1.00
21849;DHT22;11089;49.852;19.700;2023-07-29T18:26:51;22.10;99.90
21849;DHT22;11089;49.852;19.700;2023-07-29T18:29:53;22.00;1.00
21849;DHT22;11089;49.852;19.700;2023-07-29T18:32:56;22.00;99.90
21849;DHT22;11089;49.852;19.700;2023-07-29T18:35:56;22.00;1.00
21849;DHT22;11089;49.852;19.700;2023-07-29T18:38:57;22.00;1.00
21849;DHT22;11089;49.852;19.700;2023-07-29T18:41:59;21.90;1.00
21849;DHT22;11089;49.852;19.700;2023-07-29T18:45:00;21.60;1.00
21849;DHT22;11089;49.852;19.700;2023-07-29T18:48:01;21.80;1.00
21849;DHT22;11089;49.852;19.700;2023-07-29T18:51:02;21.80;1.00
21849;DHT22;11089;49.852;19.700;2023-07-29T18:54:05;21.80;1.00
21849;DHT22;11089;49.852;19.700;2023-07-29T18:57:06;22.00;1.00
21849;DHT22;11089;49.852;19.700;2023-07-29T19:03:12;22.30;1.00
21849;DHT22;11089;49.852;19.700;2023-07-29T19:06:13;21.70;1.00
21849;DHT22;11089;49.852;19.700;2023-07-29T19:09:14;21.70;1.00
21849;DHT22;11089;49.852;19.700;2023-07-29T19:15:16;21.70;1.00
21849;DHT22;11089;49.852;19.700;2023-07-29T19:18:16;21.60;40.80
21849;DHT22;11089;49.852;19.700;2023-07-29T19:21:17;21.60;99.90
21849;DHT22;11089;49.852;19.700;2023-07-29T19:24:20;21.50;1.00
21849;DHT22;11089;49.852;19.700;2023-07-29T19:39:16;21.20;1.00
21849;DHT22;11089;49.852;19.700;2023-07-29T19:45:19;20.90;1.00
21849;DHT22;11089;49.852;19.700;2023-07-29T20:00:25;19.60;1.00
21849;DHT22;11089;49.852;19.700;2023-07-29T20:12:29;20.10;99.90
21849;DHT22;11089;49.852;19.700;2023-07-29T20:15:30;20.40;2.70
21849;DHT22;11089;49.852;19.700;2023-07-29T20:21:33;20.60;99.90
21849;DHT22;11089;49.852;19.700;2023-07-29T20:24:34;20.60;1.00
21849;DHT22;11089;49.852;19.700;2023-07-29T20:45:41;20.20;99.90
21849;DHT22;11089;49.852;19.700;2023-07-29T20:48:42;19.80;1.00
21849;DHT22;11089;49.852;19.700;2023-07-29T20:51:43;19.70;99.90
21849;DHT22;11089;49.852;19.700;2023-07-29T20:57:45;20.50;1.00
21849;DHT22;11089;49.852;19.700;2023-07-29T21:00:46;19.80;1.00
21849;DHT22;11089;49.852;19.700;2023-07-29T21:03:46;19.70;1.00
21849;DHT22;11089;49.852;19.700;2023-07-29T21:06:47;19.70;1.00
21849;DHT22;11089;49.852;19.700;2023-07-29T21:09:48;19.70;99.90
21849;DHT22;11089;49.852;19.700;2023-07-29T21:12:49;19.60;99.90
21849;DHT22;11089;49.852;19.700;2023-07-29T21:15:53;19.40;1.00
21849;DHT22;11089;49.852;19.700;2023-07-29T21:18:54;19.60;1.00
21849;DHT22;11089;49.852;19.700;2023-07-29T21:21:55;20.50;1.00
21849;DHT22;11089;49.852;19.700;2023-07-29T21:27:57;19.50;1.00
21849;DHT22;11089;49.852;19.700;2023-07-29T21:30:58;18.70;1.00
21849;DHT22;11089;49.852;19.700;2023-07-29T21:33:59;19.70;99.90
21849;DHT22;11089;49.852;19.700;2023-07-29T21:37:01;19.50;1.00
21849;DHT22;11089;49.852;19.700;2023-07-29T21:40:03;19.60;99.90
21849;DHT22;11089;49.852;19.700;2023-07-29T21:43:04;19.50;99.90
21849;DHT22;11089;49.852;19.700;2023-07-29T21:46:05;19.30;37.00
21849;DHT22;11089;49.852;19.700;2023-07-29T21:49:08;19.30;1.00
21849;DHT22;11089;49.852;19.700;2023-07-29T21:52:09;19.30;99.90
21849;DHT22;11089;49.852;19.700;2023-07-29T21:55:10;19.00;99.90
21849;DHT22;11089;49.852;19.700;2023-07-29T22:01:12;19.20;99.90
21849;DHT22;11089;49.852;19.700;2023-07-29T22:07:14;19.20;1.00
21849;DHT22;11089;49.852;19.700;2023-07-29T22:10:15;19.10;1.00
21849;DHT22;11089;49.852;19.700;2023-07-29T22:13:20;19.10;99.90
21849;DHT22;11089;49.852;19.700;2023-07-29T22:16:28;19.10;1.00
21849;DHT22;11089;49.852;19.700;2023-07-29T22:19:29;19.10;99.90